sensor_id;sensor_type;location;lat;lon;timestamp;pressure;altitude;pressure_sealevel;temperature;humidity
59493;BME280;45497;43.996;22.876;2023-06-04T00:00:13;101524.78;;;18.63;60.42
59493;BME280;45497;43.996;22.876;2023-06-04T00:02:39;101524.75;;;18.49;60.21
59493;BME280;45497;43.996;22.876;2023-06-04T00:05:05;101520.59;;;18.40;59.98
59493;BME280;45497;43.996;22.876;2023-06-04T00:07:30;101520.59;;;18.40;60.13
59493;BME280;45497;43.996;22.876;2023-06-04T00:09:56;101519.78;;;18.46;59.58
59493;BME280;45497;43.996;22.876;2023-06-04T00:12:21;101512.94;;;18.44;59.64
59493;BME280;45497;43.996;22.876;2023-06-04T00:14:47;101515.41;;;18.32;59.60
59493;BME280;45497;43.996;22.876;2023-06-04T00:17:12;101515.56;;;18.24;59.88
59493;BME280;45497;43.996;22.876;2023-06-04T00:19:39;101514.19;;;18.41;59.70
59493;BME280;45497;43.996;22.876;2023-06-04T00:22:05;101517.91;;;18.47;59.37
59493;BME280;45497;43.996;22.876;2023-06-04T00:24:31;101521.44;;;18.54;59.56
59493;BME280;45497;43.996;22.876;2023-06-04T00:26:57;101520.00;;;18.51;59.87
59493;BME280;45497;43.996;22.876;2023-06-04T00:29:22;101522.47;;;18.46;60.11
59493;BME280;45497;43.996;22.876;2023-06-04T00:31:48;101519.78;;;18.46;60.64
59493;BME280;45497;43.996;22.876;2023-06-04T00:34:13;101523.50;;;18.52;61.16
59493;BME280;45497;43.996;22.876;2023-06-04T00:36:39;101522.25;;;18.54;61.44
59493;BME280;45497;43.996;22.876;2023-06-04T00:39:05;101517.53;;;18.57;61.50
59493;BME280;45497;43.996;22.876;2023-06-04T00:41:31;101529.31;;;18.62;61.82
59493;BME280;45497;43.996;22.876;2023-06-04T00:43:56;101519.41;;;18.69;62.03
59493;BME280;45497;43.996;22.876;2023-06-04T00:46:26;101534.94;;;18.81;62.02
59493;BME280;45497;43.996;22.876;2023-06-04T00:48:52;101532.41;;;18.72;62.84
59493;BME280;45497;43.996;22.876;2023-06-04T00:51:19;101535.91;;;18.60;63.51
59493;BME280;45497;43.996;22.876;2023-06-04T00:53:45;101535.84;;;18.40;63.37
59493;BME280;45497;43.996;22.876;2023-06-04T00:56:12;101544.31;;;18.30;63.09
59493;BME280;45497;43.996;22.876;2023-06-04T00:58:38;101542.44;;;18.30;62.00
59493;BME280;45497;43.996;22.876;2023-06-04T01:01:07;101546.38;;;18.28;61.31
59493;BME280;45497;43.996;22.876;2023-06-04T01:03:35;101538.44;;;18.13;61.18
59493;BME280;45497;43.996;22.876;2023-06-04T01:06:27;101544.22;;;18.17;60.94
59493;BME280;45497;43.996;22.876;2023-06-04T01:08:54;101534.88;;;17.99;60.82
59493;BME280;45497;43.996;22.876;2023-06-04T01:11:50;101549.06;;;17.86;61.08
59493;BME280;45497;43.996;22.876;2023-06-04T01:14:16;101543.63;;;17.80;60.73
59493;BME280;45497;43.996;22.876;2023-06-04T01:17:13;101548.13;;;17.72;61.11
59493;BME280;45497;43.996;22.876;2023-06-04T01:22:44;101558.66;;;17.74;60.81
59493;BME280;45497;43.996;22.876;2023-06-04T01:27:55;101554.78;;;17.55;60.73
59493;BME280;45497;43.996;22.876;2023-06-04T01:30:26;101560.47;;;17.67;60.73
59493;BME280;45497;43.996;22.876;2023-06-04T01:32:56;101561.81;;;17.56;60.95
59493;BME280;45497;43.996;22.876;2023-06-04T01:35:22;101566.94;;;17.51;60.78
59493;BME280;45497;43.996;22.876;2023-06-04T01:37:48;101562.66;;;17.56;60.59
59493;BME280;45497;43.996;22.876;2023-06-04T01:40:14;101557.41;;;17.48;60.47
59493;BME280;45497;43.996;22.876;2023-06-04T01:42:41;101562.69;;;17.35;60.69
59493;BME280;45497;43.996;22.876;2023-06-04T01:45:07;101562.59;;;17.22;60.61
59493;BME280;45497;43.996;22.876;2023-06-04T01:47:33;101571.31;;;17.30;60.81
59493;BME280;45497;43.996;22.876;2023-06-04T01:50:00;101573.50;;;17.20;60.69
59493;BME280;45497;43.996;22.876;2023-06-04T01:52:26;101579.94;;;17.04;60.52
59493;BME280;45497;43.996;22.876;2023-06-04T01:54:54;101573.97;;;17.02;60.90
59493;BME280;45497;43.996;22.876;2023-06-04T01:57:21;101568.97;;;17.20;60.54
59493;BME280;45497;43.996;22.876;2023-06-04T01:59:47;101573.09;;;17.23;60.46
59493;BME280;45497;43.996;22.876;2023-06-04T02:02:13;101583.06;;;17.29;60.45
59493;BME280;45497;43.996;22.876;2023-06-04T02:04:39;101587.38;;;17.30;60.31
59493;BME280;45497;43.996;22.876;2023-06-04T02:07:08;101585.56;;;17.31;60.15
59493;BME280;45497;43.996;22.876;2023-06-04T02:09:34;101587.34;;;17.24;60.54
59493;BME280;45497;43.996;22.876;2023-06-04T02:12:00;101584.25;;;17.27;60.51
59493;BME280;45497;43.996;22.876;2023-06-04T02:14:26;101581.81;;;17.32;60.05
59493;BME280;45497;43.996;22.876;2023-06-04T02:16:51;101588.03;;;17.32;60.16
59493;BME280;45497;43.996;22.876;2023-06-04T02:19:19;101601.34;;;17.47;59.86
59493;BME280;45497;43.996;22.876;2023-06-04T02:21:46;101594.06;;;17.41;59.57
59493;BME280;45497;43.996;22.876;2023-06-04T02:24:11;101605.44;;;17.43;59.19
59493;BME280;45497;43.996;22.876;2023-06-04T02:26:37;101609.41;;;17.47;59.19
59493;BME280;45497;43.996;22.876;2023-06-04T02:29:03;101621.13;;;17.25;58.95
59493;BME280;45497;43.996;22.876;2023-06-04T02:31:29;101622.75;;;17.19;58.83
59493;BME280;45497;43.996;22.876;2023-06-04T02:33:55;101609.41;;;17.26;58.72
59493;BME280;45497;43.996;22.876;2023-06-04T02:36:21;101622.88;;;17.11;58.64
59493;BME280;45497;43.996;22.876;2023-06-04T02:38:46;101626.25;;;17.19;58.84
59493;BME280;45497;43.996;22.876;2023-06-04T02:41:11;101628.47;;;17.16;58.75
59493;BME280;45497;43.996;22.876;2023-06-04T02:43:37;101629.69;;;17.13;58.81
59493;BME280;45497;43.996;22.876;2023-06-04T02:46:02;101635.31;;;17.18;58.78
59493;BME280;45497;43.996;22.876;2023-06-04T02:48:28;101633.28;;;17.20;58.69
59493;BME280;45497;43.996;22.876;2023-06-04T02:50:53;101647.69;;;16.98;59.02
59493;BME280;45497;43.996;22.876;2023-06-04T02:53:19;101654.06;;;16.97;59.41
59493;BME280;45497;43.996;22.876;2023-06-04T02:55:46;101649.31;;;16.99;59.43
59493;BME280;45497;43.996;22.876;2023-06-04T02:58:11;101663.84;;;16.90;59.60
59493;BME280;45497;43.996;22.876;2023-06-04T03:00:36;101671.81;;;16.83;59.83
59493;BME280;45497;43.996;22.876;2023-06-04T03:03:02;101662.91;;;16.97;59.89
59493;BME280;45497;43.996;22.876;2023-06-04T03:05:28;101668.84;;;16.93;59.97
59493;BME280;45497;43.996;22.876;2023-06-04T03:07:56;101681.19;;;16.94;59.95
59493;BME280;45497;43.996;22.876;2023-06-04T03:10:22;101676.69;;;16.94;59.97
59493;BME280;45497;43.996;22.876;2023-06-04T03:12:48;101682.69;;;16.96;59.84
59493;BME280;45497;43.996;22.876;2023-06-04T03:15:13;101685.91;;;16.77;59.92
59493;BME280;45497;43.996;22.876;2023-06-04T03:17:40;101699.78;;;16.66;59.86
59493;BME280;45497;43.996;22.876;2023-06-04T03:20:06;101694.06;;;16.54;59.71
59493;BME280;45497;43.996;22.876;2023-06-04T03:22:32;101694.06;;;16.39;59.26
59493;BME280;45497;43.996;22.876;2023-06-04T03:25:00;101698.41;;;16.25;59.36
59493;BME280;45497;43.996;22.876;2023-06-04T03:27:26;101685.66;;;16.27;59.54
59493;BME280;45497;43.996;22.876;2023-06-04T03:29:51;101695.19;;;16.30;59.47
59493;BME280;45497;43.996;22.876;2023-06-04T03:32:17;101706.34;;;16.33;59.44
59493;BME280;45497;43.996;22.876;2023-06-04T03:34:43;101704.44;;;16.04;60.28
59493;BME280;45497;43.996;22.876;2023-06-04T03:37:09;101712.59;;;16.11;60.67
59493;BME280;45497;43.996;22.876;2023-06-04T03:39:35;101710.38;;;16.14;60.90
59493;BME280;45497;43.996;22.876;2023-06-04T03:42:00;101707.34;;;16.17;60.73
59493;BME280;45497;43.996;22.876;2023-06-04T03:44:26;101696.72;;;16.09;61.11
59493;BME280;45497;43.996;22.876;2023-06-04T03:46:51;101705.00;;;15.99;61.77
59493;BME280;45497;43.996;22.876;2023-06-04T03:49:17;101705.22;;;16.13;61.61
59493;BME280;45497;43.996;22.876;2023-06-04T03:51:43;101709.44;;;16.07;61.71
59493;BME280;45497;43.996;22.876;2023-06-04T03:54:09;101702.81;;;16.03;61.95
59493;BME280;45497;43.996;22.876;2023-06-04T03:56:35;101698.91;;;16.05;61.72
59493;BME280;45497;43.996;22.876;2023-06-04T03:59:01;101715.06;;;15.97;62.15
59493;BME280;45497;43.996;22.876;2023-06-04T04:01:26;101713.09;;;15.91;62.43
59493;BME280;45497;43.996;22.876;2023-06-04T04:03:52;101716.84;;;15.82;62.75
59493;BME280;45497;43.996;22.876;2023-06-04T04:06:19;101704.72;;;15.94;62.38
59493;BME280;45497;43.996;22.876;2023-06-04T04:08:45;101710.66;;;16.04;62.35
59493;BME280;45497;43.996;22.876;2023-06-04T04:11:11;101718.25;;;15.93;62.90
59493;BME280;45497;43.996;22.876;2023-06-04T04:13:37;101716.53;;;16.00;62.49
59493;BME280;45497;43.996;22.876;2023-06-04T04:16:03;101726.75;;;15.96;62.60
59493;BME280;45497;43.996;22.876;2023-06-04T04:18:32;101714.50;;;16.02;62.49
59493;BME280;45497;43.996;22.876;2023-06-04T04:20:58;101728.44;;;15.97;62.34
59493;BME280;45497;43.996;22.876;2023-06-04T04:23:24;101721.56;;;15.80;62.29
59493;BME280;45497;43.996;22.876;2023-06-04T04:25:50;101732.41;;;15.78;62.33
59493;BME280;45497;43.996;22.876;2023-06-04T04:28:16;101727.84;;;15.87;61.91
59493;BME280;45497;43.996;22.876;2023-06-04T04:30:43;101729.00;;;15.84;61.89
59493;BME280;45497;43.996;22.876;2023-06-04T04:33:10;101737.97;;;15.92;61.65
59493;BME280;45497;43.996;22.876;2023-06-04T04:35:36;101733.50;;;15.92;61.34
59493;BME280;45497;43.996;22.876;2023-06-04T04:38:02;101741.03;;;15.89;61.38
59493;BME280;45497;43.996;22.876;2023-06-04T04:40:31;101734.50;;;15.91;61.42
59493;BME280;45497;43.996;22.876;2023-06-04T04:42:57;101750.88;;;15.88;61.12
59493;BME280;45497;43.996;22.876;2023-06-04T04:45:23;101733.22;;;16.02;61.07
59493;BME280;45497;43.996;22.876;2023-06-04T04:47:48;101736.69;;;15.88;60.95
59493;BME280;45497;43.996;22.876;2023-06-04T04:50:16;101728.03;;;15.85;60.86
59493;BME280;45497;43.996;22.876;2023-06-04T04:52:42;101734.19;;;15.86;60.43
59493;BME280;45497;43.996;22.876;2023-06-04T04:55:08;101724.13;;;15.88;60.16
59493;BME280;45497;43.996;22.876;2023-06-04T04:57:34;101721.59;;;16.10;60.04
59493;BME280;45497;43.996;22.876;2023-06-04T04:59:59;101722.53;;;16.02;59.91
59493;BME280;45497;43.996;22.876;2023-06-04T05:02:25;101735.78;;;15.95;59.93
59493;BME280;45497;43.996;22.876;2023-06-04T05:04:50;101731.50;;;15.86;60.13
59493;BME280;45497;43.996;22.876;2023-06-04T05:07:16;101724.38;;;16.01;60.20
59493;BME280;45497;43.996;22.876;2023-06-04T05:09:41;101738.00;;;16.30;59.66
59493;BME280;45497;43.996;22.876;2023-06-04T05:12:07;101738.72;;;16.23;59.49
59493;BME280;45497;43.996;22.876;2023-06-04T05:14:33;101750.97;;;16.18;59.65
59493;BME280;45497;43.996;22.876;2023-06-04T05:17:01;101746.03;;;16.30;59.60
59493;BME280;45497;43.996;22.876;2023-06-04T05:19:28;101738.81;;;16.30;59.55
59493;BME280;45497;43.996;22.876;2023-06-04T05:21:54;101737.06;;;16.22;59.65
59493;BME280;45497;43.996;22.876;2023-06-04T05:24:19;101742.94;;;16.18;60.00
59493;BME280;45497;43.996;22.876;2023-06-04T05:26:45;101747.28;;;16.19;59.83
59493;BME280;45497;43.996;22.876;2023-06-04T05:29:13;101754.50;;;16.33;59.86
59493;BME280;45497;43.996;22.876;2023-06-04T05:31:39;101749.16;;;16.33;59.92
59493;BME280;45497;43.996;22.876;2023-06-04T05:34:05;101756.28;;;16.41;60.00
59493;BME280;45497;43.996;22.876;2023-06-04T05:36:30;101759.88;;;16.48;60.14
59493;BME280;45497;43.996;22.876;2023-06-04T05:38:56;101752.56;;;16.42;60.39
59493;BME280;45497;43.996;22.876;2023-06-04T05:41:26;101763.00;;;16.52;60.47
59493;BME280;45497;43.996;22.876;2023-06-04T05:43:53;101759.53;;;16.51;60.46
59493;BME280;45497;43.996;22.876;2023-06-04T05:46:18;101755.44;;;16.55;60.25
59493;BME280;45497;43.996;22.876;2023-06-04T05:48:44;101770.50;;;16.71;60.43
59493;BME280;45497;43.996;22.876;2023-06-04T05:51:13;101768.09;;;16.76;60.39
59493;BME280;45497;43.996;22.876;2023-06-04T05:53:39;101771.97;;;16.74;60.37
59493;BME280;45497;43.996;22.876;2023-06-04T05:56:04;101769.09;;;16.75;60.53
59493;BME280;45497;43.996;22.876;2023-06-04T05:58:32;101767.38;;;16.68;60.87
59493;BME280;45497;43.996;22.876;2023-06-04T06:00:58;101774.81;;;16.57;61.32
59493;BME280;45497;43.996;22.876;2023-06-04T06:03:23;101768.94;;;16.62;61.32
59493;BME280;45497;43.996;22.876;2023-06-04T06:05:49;101786.56;;;16.71;61.28
59493;BME280;45497;43.996;22.876;2023-06-04T06:08:14;101783.59;;;16.81;61.12
59493;BME280;45497;43.996;22.876;2023-06-04T06:10:40;101779.91;;;16.82;61.37
59493;BME280;45497;43.996;22.876;2023-06-04T06:13:05;101781.59;;;16.98;61.48
59493;BME280;45497;43.996;22.876;2023-06-04T06:15:31;101781.69;;;17.05;61.69
59493;BME280;45497;43.996;22.876;2023-06-04T06:17:58;101794.13;;;17.27;61.20
59493;BME280;45497;43.996;22.876;2023-06-04T06:20:23;101787.47;;;17.23;61.20
59493;BME280;45497;43.996;22.876;2023-06-04T06:22:49;101796.69;;;17.35;61.14
59493;BME280;45497;43.996;22.876;2023-06-04T06:25:14;101798.69;;;17.48;61.17
59493;BME280;45497;43.996;22.876;2023-06-04T06:27:41;101788.47;;;17.58;60.59
59493;BME280;45497;43.996;22.876;2023-06-04T06:30:08;101797.22;;;17.46;60.93
59493;BME280;45497;43.996;22.876;2023-06-04T06:32:34;101789.91;;;17.54;60.65
59493;BME280;45497;43.996;22.876;2023-06-04T06:35:00;101794.44;;;17.39;60.43
59493;BME280;45497;43.996;22.876;2023-06-04T06:37:26;101795.41;;;17.31;60.23
59493;BME280;45497;43.996;22.876;2023-06-04T06:39:51;101798.47;;;17.13;60.39
59493;BME280;45497;43.996;22.876;2023-06-04T06:42:17;101801.75;;;17.09;60.35
59493;BME280;45497;43.996;22.876;2023-06-04T06:44:46;101801.25;;;17.20;60.38
59493;BME280;45497;43.996;22.876;2023-06-04T06:47:12;101798.13;;;17.16;60.42
59493;BME280;45497;43.996;22.876;2023-06-04T06:49:40;101798.00;;;17.25;60.38
59493;BME280;45497;43.996;22.876;2023-06-04T06:52:06;101805.50;;;17.14;60.51
59493;BME280;45497;43.996;22.876;2023-06-04T06:54:32;101805.16;;;17.03;60.86
59493;BME280;45497;43.996;22.876;2023-06-04T06:56:57;101809.00;;;17.15;60.39
59493;BME280;45497;43.996;22.876;2023-06-04T06:59:23;101810.66;;;17.16;60.46
59493;BME280;45497;43.996;22.876;2023-06-04T07:01:49;101819.16;;;17.19;60.25
59493;BME280;45497;43.996;22.876;2023-06-04T07:04:15;101815.69;;;17.04;60.35
59493;BME280;45497;43.996;22.876;2023-06-04T07:06:41;101818.59;;;17.24;60.19
59493;BME280;45497;43.996;22.876;2023-06-04T07:09:07;101814.72;;;17.27;60.01
59493;BME280;45497;43.996;22.876;2023-06-04T07:11:33;101814.19;;;17.16;60.27
59493;BME280;45497;43.996;22.876;2023-06-04T07:13:59;101823.66;;;17.34;60.09
59493;BME280;45497;43.996;22.876;2023-06-04T07:16:27;101833.66;;;17.40;59.85
59493;BME280;45497;43.996;22.876;2023-06-04T07:18:52;101830.88;;;17.33;60.03
59493;BME280;45497;43.996;22.876;2023-06-04T07:21:18;101833.22;;;17.22;60.09
59493;BME280;45497;43.996;22.876;2023-06-04T07:23:45;101832.94;;;17.16;60.15
59493;BME280;45497;43.996;22.876;2023-06-04T07:26:15;101838.13;;;17.18;59.79
59493;BME280;45497;43.996;22.876;2023-06-04T07:28:40;101835.25;;;17.34;59.45
59493;BME280;45497;43.996;22.876;2023-06-04T07:31:06;101840.31;;;17.29;59.15
59493;BME280;45497;43.996;22.876;2023-06-04T07:33:31;101833.00;;;17.23;59.23
59493;BME280;45497;43.996;22.876;2023-06-04T07:35:57;101852.06;;;17.43;58.63
59493;BME280;45497;43.996;22.876;2023-06-04T07:38:22;101849.38;;;17.43;58.24
59493;BME280;45497;43.996;22.876;2023-06-04T07:40:48;101854.63;;;17.36;57.99
59493;BME280;45497;43.996;22.876;2023-06-04T07:43:13;101852.50;;;17.47;57.35
59493;BME280;45497;43.996;22.876;2023-06-04T07:45:39;101864.38;;;17.59;57.57
59493;BME280;45497;43.996;22.876;2023-06-04T07:48:04;101858.97;;;17.52;57.24
59493;BME280;45497;43.996;22.876;2023-06-04T07:50:30;101862.75;;;17.58;57.42
59493;BME280;45497;43.996;22.876;2023-06-04T07:52:55;101867.78;;;17.68;57.14
59493;BME280;45497;43.996;22.876;2023-06-04T07:55:22;101865.88;;;17.62;57.13
59493;BME280;45497;43.996;22.876;2023-06-04T07:57:47;101864.19;;;17.61;57.10
59493;BME280;45497;43.996;22.876;2023-06-04T08:00:13;101871.41;;;17.60;56.82
59493;BME280;45497;43.996;22.876;2023-06-04T08:02:39;101863.81;;;17.64;56.66
59493;BME280;45497;43.996;22.876;2023-06-04T08:05:05;101872.69;;;17.79;56.65
59493;BME280;45497;43.996;22.876;2023-06-04T08:07:31;101876.44;;;17.85;56.53
59493;BME280;45497;43.996;22.876;2023-06-04T08:09:56;101872.19;;;17.54;56.26
59493;BME280;45497;43.996;22.876;2023-06-04T08:12:22;101874.00;;;17.53;56.58
59493;BME280;45497;43.996;22.876;2023-06-04T08:14:48;101878.00;;;17.57;56.29
59493;BME280;45497;43.996;22.876;2023-06-04T08:17:15;101883.91;;;17.53;56.30
59493;BME280;45497;43.996;22.876;2023-06-04T08:19:41;101881.28;;;17.74;56.33
59493;BME280;45497;43.996;22.876;2023-06-04T08:22:06;101884.34;;;17.86;56.07
59493;BME280;45497;43.996;22.876;2023-06-04T08:24:32;101899.31;;;17.66;56.22
59493;BME280;45497;43.996;22.876;2023-06-04T08:26:57;101892.00;;;17.74;55.89
59493;BME280;45497;43.996;22.876;2023-06-04T08:29:23;101902.47;;;17.69;55.97
59493;BME280;45497;43.996;22.876;2023-06-04T08:31:48;101906.81;;;17.70;55.90
59493;BME280;45497;43.996;22.876;2023-06-04T08:34:14;101900.63;;;17.55;56.00
59493;BME280;45497;43.996;22.876;2023-06-04T08:36:39;101910.09;;;17.51;56.35
59493;BME280;45497;43.996;22.876;2023-06-04T08:39:06;101908.97;;;17.60;56.46
59493;BME280;45497;43.996;22.876;2023-06-04T08:41:41;101914.78;;;17.64;56.28
59493;BME280;45497;43.996;22.876;2023-06-04T08:44:09;101914.47;;;17.73;56.10
59493;BME280;45497;43.996;22.876;2023-06-04T08:46:39;101909.69;;;17.69;56.59
59493;BME280;45497;43.996;22.876;2023-06-04T08:49:06;101910.06;;;17.66;56.62
59493;BME280;45497;43.996;22.876;2023-06-04T08:51:34;101910.22;;;17.79;57.09
59493;BME280;45497;43.996;22.876;2023-06-04T08:54:03;101924.75;;;17.70;57.29
59493;BME280;45497;43.996;22.876;2023-06-04T08:56:29;101917.03;;;17.45;57.13
59493;BME280;45497;43.996;22.876;2023-06-04T08:59:00;101915.19;;;17.31;57.41
59493;BME280;45497;43.996;22.876;2023-06-04T09:01:31;101912.66;;;17.44;57.29
59493;BME280;45497;43.996;22.876;2023-06-04T09:03:59;101912.00;;;17.57;56.47
59493;BME280;45497;43.996;22.876;2023-06-04T09:06:26;101915.78;;;17.63;56.17
59493;BME280;45497;43.996;22.876;2023-06-04T09:08:54;101921.50;;;17.74;56.00
59493;BME280;45497;43.996;22.876;2023-06-04T09:11:23;101921.78;;;17.80;55.89
59493;BME280;45497;43.996;22.876;2023-06-04T09:13:52;101916.59;;;17.78;56.02
59493;BME280;45497;43.996;22.876;2023-06-04T09:16:19;101924.09;;;17.68;56.58
59493;BME280;45497;43.996;22.876;2023-06-04T09:18:44;101908.78;;;17.62;57.01
59493;BME280;45497;43.996;22.876;2023-06-04T09:21:10;101919.84;;;17.88;56.71
59493;BME280;45497;43.996;22.876;2023-06-04T09:23:48;101921.75;;;17.94;56.59
59493;BME280;45497;43.996;22.876;2023-06-04T09:26:14;101937.41;;;17.91;56.07
59493;BME280;45497;43.996;22.876;2023-06-04T09:28:41;101926.13;;;17.66;55.44
59493;BME280;45497;43.996;22.876;2023-06-04T09:31:25;101924.75;;;17.70;55.03
59493;BME280;45497;43.996;22.876;2023-06-04T09:33:52;101919.53;;;17.98;55.22
59493;BME280;45497;43.996;22.876;2023-06-04T09:36:17;101931.88;;;18.14;54.93
59493;BME280;45497;43.996;22.876;2023-06-04T09:38:43;101927.28;;;18.08;54.19
59493;BME280;45497;43.996;22.876;2023-06-04T09:41:16;101931.81;;;18.07;53.92
59493;BME280;45497;43.996;22.876;2023-06-04T09:43:45;101927.66;;;18.05;54.14
59493;BME280;45497;43.996;22.876;2023-06-04T09:46:15;101930.38;;;18.26;53.79
59493;BME280;45497;43.996;22.876;2023-06-04T09:48:42;101931.38;;;18.47;54.23
59493;BME280;45497;43.996;22.876;2023-06-04T09:51:12;101932.88;;;18.78;54.19
59493;BME280;45497;43.996;22.876;2023-06-04T09:53:38;101931.72;;;18.87;54.06
59493;BME280;45497;43.996;22.876;2023-06-04T09:56:05;101932.63;;;18.94;53.68
59493;BME280;45497;43.996;22.876;2023-06-04T09:58:37;101925.66;;;19.00;53.49
59493;BME280;45497;43.996;22.876;2023-06-04T10:01:05;101928.47;;;18.91;53.90
59493;BME280;45497;43.996;22.876;2023-06-04T10:03:35;101926.81;;;18.69;53.20
59493;BME280;45497;43.996;22.876;2023-06-04T10:06:05;101919.97;;;18.66;52.85
59493;BME280;45497;43.996;22.876;2023-06-04T10:08:32;101938.00;;;18.51;53.33
59493;BME280;45497;43.996;22.876;2023-06-04T10:11:00;101930.28;;;18.84;53.24
59493;BME280;45497;43.996;22.876;2023-06-04T10:13:31;101935.03;;;18.82;51.47
59493;BME280;45497;43.996;22.876;2023-06-04T10:16:01;101933.84;;;18.70;50.07
59493;BME280;45497;43.996;22.876;2023-06-04T10:18:27;101924.56;;;18.72;50.03
59493;BME280;45497;43.996;22.876;2023-06-04T10:20:57;101926.38;;;18.87;50.09
59493;BME280;45497;43.996;22.876;2023-06-04T10:23:24;101924.16;;;18.97;49.68
59493;BME280;45497;43.996;22.876;2023-06-04T10:25:51;101927.47;;;18.93;49.52
59493;BME280;45497;43.996;22.876;2023-06-04T10:28:22;101926.44;;;18.72;49.56
59493;BME280;45497;43.996;22.876;2023-06-04T10:30:49;101934.56;;;18.57;49.69
59493;BME280;45497;43.996;22.876;2023-06-04T10:33:19;101940.25;;;18.69;49.84
59493;BME280;45497;43.996;22.876;2023-06-04T10:35:49;101937.63;;;18.76;50.35
59493;BME280;45497;43.996;22.876;2023-06-04T10:38:15;101938.09;;;18.58;50.39
59493;BME280;45497;43.996;22.876;2023-06-04T10:40:42;101940.00;;;18.64;50.36
59493;BME280;45497;43.996;22.876;2023-06-04T10:43:12;101938.47;;;18.54;50.56
59493;BME280;45497;43.996;22.876;2023-06-04T10:45:38;101938.28;;;18.56;51.08
59493;BME280;45497;43.996;22.876;2023-06-04T10:48:06;101932.88;;;18.78;51.21
59493;BME280;45497;43.996;22.876;2023-06-04T10:50:33;101932.88;;;18.78;51.24
59493;BME280;45497;43.996;22.876;2023-06-04T10:52:59;101923.56;;;18.73;51.34
59493;BME280;45497;43.996;22.876;2023-06-04T10:55:28;101942.25;;;18.60;51.11
59493;BME280;45497;43.996;22.876;2023-06-04T10:57:56;101944.88;;;18.53;51.22
59493;BME280;45497;43.996;22.876;2023-06-04T11:00:33;101939.94;;;18.57;51.23
59493;BME280;45497;43.996;22.876;2023-06-04T11:02:59;101946.31;;;18.56;50.61
59493;BME280;45497;43.996;22.876;2023-06-04T11:05:38;101937.00;;;18.52;50.55
59493;BME280;45497;43.996;22.876;2023-06-04T11:08:05;101940.31;;;18.54;50.50
59493;BME280;45497;43.996;22.876;2023-06-04T11:10:33;101936.75;;;18.47;50.77
59493;BME280;45497;43.996;22.876;2023-06-04T11:12:59;101925.19;;;18.46;50.89
59493;BME280;45497;43.996;22.876;2023-06-04T11:15:25;101932.88;;;18.49;50.77
59493;BME280;45497;43.996;22.876;2023-06-04T11:20:17;101939.78;;;18.87;50.92
59493;BME280;45497;43.996;22.876;2023-06-04T11:22:59;101936.28;;;18.86;50.60
59493;BME280;45497;43.996;22.876;2023-06-04T11:25:29;101934.56;;;18.79;50.94
59493;BME280;45497;43.996;22.876;2023-06-04T11:27:56;101937.88;;;18.81;51.08
59493;BME280;45497;43.996;22.876;2023-06-04T11:30:23;101934.34;;;18.80;51.28
59493;BME280;45497;43.996;22.876;2023-06-04T11:32:49;101932.97;;;18.84;51.30
59493;BME280;45497;43.996;22.876;2023-06-04T11:35:15;101939.59;;;18.67;51.24
59493;BME280;45497;43.996;22.876;2023-06-04T11:37:41;101937.81;;;18.52;52.99
59493;BME280;45497;43.996;22.876;2023-06-04T11:40:19;101930.41;;;18.54;52.84
59493;BME280;45497;43.996;22.876;2023-06-04T11:42:48;101943.25;;;18.59;53.41
59493;BME280;45497;43.996;22.876;2023-06-04T11:45:18;101939.78;;;18.65;53.42
59493;BME280;45497;43.996;22.876;2023-06-04T11:47:48;101944.25;;;18.51;53.56
59493;BME280;45497;43.996;22.876;2023-06-04T11:50:14;101945.50;;;18.34;53.92
59493;BME280;45497;43.996;22.876;2023-06-04T11:52:41;101941.47;;;18.45;53.67
59493;BME280;45497;43.996;22.876;2023-06-04T11:55:11;101941.41;;;18.38;53.71
59493;BME280;45497;43.996;22.876;2023-06-04T11:57:40;101922.50;;;18.25;53.84
59493;BME280;45497;43.996;22.876;2023-06-04T12:00:07;101934.84;;;18.41;53.96
59493;BME280;45497;43.996;22.876;2023-06-04T12:02:37;101924.22;;;18.32;54.04
59493;BME280;45497;43.996;22.876;2023-06-04T12:05:16;101925.03;;;18.54;54.00
59493;BME280;45497;43.996;22.876;2023-06-04T12:07:46;101917.50;;;18.43;53.98
59493;BME280;45497;43.996;22.876;2023-06-04T12:10:12;101920.53;;;18.12;54.18
59493;BME280;45497;43.996;22.876;2023-06-04T12:12:38;101925.50;;;18.15;54.14
59493;BME280;45497;43.996;22.876;2023-06-04T12:15:06;101931.00;;;18.28;54.25
59493;BME280;45497;43.996;22.876;2023-06-04T12:17:32;101917.25;;;18.38;53.73
59493;BME280;45497;43.996;22.876;2023-06-04T12:19:58;101920.72;;;18.53;53.51
59493;BME280;45497;43.996;22.876;2023-06-04T12:22:24;101916.22;;;18.61;52.63
59493;BME280;45497;43.996;22.876;2023-06-04T12:24:52;101922.50;;;18.46;52.50
59493;BME280;45497;43.996;22.876;2023-06-04T12:27:19;101917.88;;;18.62;52.66
59493;BME280;45497;43.996;22.876;2023-06-04T12:30:03;101923.91;;;18.64;52.45
59493;BME280;45497;43.996;22.876;2023-06-04T12:32:29;101918.31;;;18.65;52.39
59493;BME280;45497;43.996;22.876;2023-06-04T12:34:55;101926.63;;;18.70;52.29
59493;BME280;45497;43.996;22.876;2023-06-04T12:37:22;101925.53;;;18.86;52.25
59493;BME280;45497;43.996;22.876;2023-06-04T12:39:50;101915.09;;;18.98;52.21
59493;BME280;45497;43.996;22.876;2023-06-04T12:42:17;101919.09;;;19.09;52.34
59493;BME280;45497;43.996;22.876;2023-06-04T12:44:44;101914.78;;;19.15;52.20
59493;BME280;45497;43.996;22.876;2023-06-04T12:47:10;101908.03;;;19.25;51.96